KELP

El Paso International Airport

El Paso, Texas, USA
METAR KELP 231451Z 14004KT 10SM CLR 25/M01 A3002 RMK AO2 SLP090 T02501006 53017
Observed Flight Rules
May-23 @ 14:51 UTC (20 minutes ago) Visual Flight Rules
Wind Visibility Clouds
140° at 4 knots 10 miles
  • Clear skies
Temperatures Readings
Current 25°C / 77°F
Dewpoint -1°C / 30°F
Humidity 18%
Altimeter 30.02" Hg
Pressure 1009 hPa
Elevation 1197
METAR KELP 231451Z 14004KT 10SM CLR 25/M01 A3002 RMK AO2 SLP090 T02501006 53017
Observed Flight Rules
May-23 @ 14:51 UTC
(20 minutes ago)
VFR
Wind Visibility
140° at 4 knots 10 miles
Clouds
  • Clear skies
Temperature Dewpoint
25°C / 77°F -1°C / 30°F
Humidity Altimeter Pressure
18% 30.02" Hg 1009 hPa